createdAt,value
2023-04-14T00:00:35.913Z,10.26
2023-04-14T00:03:03.086Z,10.24
2023-04-14T00:05:30.605Z,10.35
2023-04-14T00:07:58.008Z,10.46
2023-04-14T00:10:25.326Z,10.59
2023-04-14T00:12:52.121Z,10.48
2023-04-14T00:15:19.176Z,10.51
2023-04-14T00:17:46.002Z,10.44
2023-04-14T00:20:12.854Z,10.17
2023-04-14T00:22:39.484Z,10.08
2023-04-14T00:25:06.233Z,10.39
2023-04-14T00:27:32.874Z,10.29
2023-04-14T00:29:59.494Z,10.18
2023-04-14T00:32:26.147Z,10.19
2023-04-14T00:34:52.778Z,10.38
2023-04-14T00:37:19.560Z,10.26
2023-04-14T00:39:46.273Z,10.42
2023-04-14T00:42:12.941Z,10.45
2023-04-14T00:44:39.606Z,10.52
2023-04-14T00:47:06.342Z,10.64
2023-04-14T00:49:33.291Z,10.59
2023-04-14T00:52:00.108Z,10.67
2023-04-14T00:54:26.852Z,10.44
2023-04-14T00:56:54.147Z,10.41
2023-04-14T00:59:21.111Z,10.54
2023-04-14T01:01:47.820Z,10.55
2023-04-14T01:04:15.945Z,10.55
2023-04-14T01:06:42.728Z,10.49
2023-04-14T01:09:09.718Z,10.20
2023-04-14T01:12:13.835Z,10.35
2023-04-14T01:15:11.873Z,10.27
2023-04-14T01:17:45.536Z,10.43
2023-04-14T01:20:31.363Z,10.41
2023-04-14T01:23:09.671Z,10.30
2023-04-14T01:25:54.743Z,10.32
2023-04-14T01:28:45.382Z,10.29
2023-04-14T01:31:20.893Z,10.46
2023-04-14T01:33:55.155Z,10.42
2023-04-14T01:36:26.845Z,10.33
2023-04-14T01:38:55.611Z,10.31
2023-04-14T01:41:23.308Z,10.33
2023-04-14T01:43:54.110Z,10.38
2023-04-14T01:46:21.864Z,10.46
2023-04-14T01:48:50.618Z,10.23
2023-04-14T01:51:20.029Z,10.29
2023-04-14T01:53:49.195Z,10.28
2023-04-14T01:56:17.868Z,10.39
2023-04-14T01:58:46.765Z,10.25
2023-04-14T02:01:14.044Z,10.04
2023-04-14T02:03:42.828Z,10.44
2023-04-14T02:06:12.888Z,10.45
2023-04-14T02:08:41.939Z,10.42
2023-04-14T02:11:11.446Z,10.35
2023-04-14T02:13:41.376Z,10.34
2023-04-14T02:16:10.635Z,10.33
2023-04-14T02:18:39.372Z,10.31
2023-04-14T02:21:06.725Z,10.31
2023-04-14T02:23:33.514Z,10.31
2023-04-14T02:26:12.257Z,10.28
2023-04-14T02:28:46.410Z,10.24
2023-04-14T02:31:15.250Z,10.11
2023-04-14T02:33:44.410Z,10.19
2023-04-14T02:36:17.443Z,10.31
2023-04-14T02:38:53.366Z,10.13
2023-04-14T02:41:28.931Z,10.21
2023-04-14T02:44:18.924Z,10.13
2023-04-14T02:47:06.416Z,10.24
2023-04-14T02:49:53.373Z,10.22
2023-04-14T02:52:22.457Z,10.20
2023-04-14T02:54:50.525Z,10.00
2023-04-14T02:57:17.797Z,10.06
2023-04-14T02:59:46.108Z,10.07
2023-04-14T03:02:13.652Z,10.19
2023-04-14T03:04:40.512Z,10.17
2023-04-14T03:07:09.230Z,10.13
2023-04-14T03:09:36.513Z,10.08
2023-04-14T03:12:04.717Z,10.20
2023-04-14T03:14:31.657Z,10.29
2023-04-14T03:16:59.083Z,10.24
2023-04-14T03:19:26.600Z,9.95
2023-04-14T03:21:53.299Z,10.24
2023-04-14T03:24:22.864Z,10.18
2023-04-14T03:26:52.416Z,10.22
2023-04-14T03:29:21.765Z,10.13
2023-04-14T03:31:49.789Z,10.28
2023-04-14T03:34:18.078Z,10.04
2023-04-14T03:36:45.985Z,9.93
2023-04-14T03:39:14.218Z,10.01
2023-04-14T03:41:42.537Z,10.03
2023-04-14T03:44:11.297Z,10.20
2023-04-14T03:46:38.069Z,10.05
2023-04-14T03:49:07.789Z,9.92
2023-04-14T03:51:36.103Z,10.16
2023-04-14T03:54:05.923Z,10.26
2023-04-14T03:56:34.557Z,10.31
2023-04-14T03:59:02.689Z,10.07
2023-04-14T04:01:32.196Z,10.22
2023-04-14T04:04:01.356Z,10.24
2023-04-14T04:06:29.454Z,10.54
2023-04-14T04:08:56.783Z,10.36
2023-04-14T04:11:26.896Z,10.57
2023-04-14T04:13:55.792Z,10.59
2023-04-14T04:16:24.685Z,10.79
2023-04-14T04:18:53.319Z,10.65
2023-04-14T04:21:21.565Z,10.35
2023-04-14T04:23:53.705Z,10.41
2023-04-14T04:26:20.433Z,10.61
2023-04-14T04:28:47.799Z,10.59
2023-04-14T04:31:16.100Z,10.72
2023-04-14T04:33:45.294Z,10.44
2023-04-14T04:36:13.245Z,10.47
2023-04-14T04:38:39.966Z,10.44
2023-04-14T04:41:06.605Z,10.42
2023-04-14T04:43:33.190Z,10.15
2023-04-14T04:46:17.150Z,10.21
2023-04-14T04:48:43.818Z,10.28
2023-04-14T04:51:10.457Z,10.04
2023-04-14T04:53:37.098Z,10.38
2023-04-14T04:56:04.053Z,10.24
2023-04-14T04:58:30.669Z,10.43
2023-04-14T05:00:57.363Z,10.40
2023-04-14T05:03:24.144Z,10.23
2023-04-14T05:05:50.761Z,10.44
2023-04-14T05:08:17.393Z,10.28
2023-04-14T05:10:44.365Z,10.16
2023-04-14T05:13:11.085Z,10.21
2023-04-14T05:15:37.796Z,10.22
2023-04-14T05:18:04.543Z,10.62
2023-04-14T05:20:32.155Z,10.64
2023-04-14T05:22:59.572Z,10.33
2023-04-14T05:25:26.232Z,10.47
2023-04-14T05:27:53.082Z,10.19
2023-04-14T05:30:19.733Z,10.39
2023-04-14T05:32:46.419Z,10.31
2023-04-14T05:35:13.144Z,10.53
2023-04-14T05:37:39.802Z,10.08
2023-04-14T05:40:07.334Z,9.94
2023-04-14T05:42:33.922Z,9.94
2023-04-14T05:45:00.529Z,10.12
2023-04-14T05:47:27.243Z,10.22
2023-04-14T05:49:53.925Z,10.31
2023-04-14T05:52:20.554Z,10.52
2023-04-14T05:54:47.169Z,10.54
2023-04-14T05:57:13.837Z,10.37
2023-04-14T05:59:41.735Z,10.80
2023-04-14T06:02:08.516Z,10.78
2023-04-14T06:04:35.360Z,10.86
2023-04-14T06:07:02.233Z,10.68
2023-04-14T06:09:28.948Z,10.64
2023-04-14T06:11:55.563Z,10.58
2023-04-14T06:14:22.227Z,10.38
2023-04-14T06:16:48.879Z,10.62
2023-04-14T06:19:15.512Z,10.85
2023-04-14T06:21:42.199Z,10.57
2023-04-14T06:24:08.841Z,10.40
2023-04-14T06:26:35.523Z,10.43
2023-04-14T06:29:02.403Z,10.78
2023-04-14T06:31:29.254Z,10.85
2023-04-14T06:33:55.922Z,10.78
2023-04-14T06:36:22.520Z,10.57
2023-04-14T06:38:49.193Z,10.92
2023-04-14T06:41:15.891Z,11.21
2023-04-14T06:43:42.539Z,11.01
2023-04-14T06:46:09.197Z,10.91
2023-04-14T06:48:35.988Z,11.05
2023-04-14T06:51:02.752Z,11.18
2023-04-14T06:53:29.421Z,11.04
2023-04-14T06:55:56.183Z,11.21
2023-04-14T06:58:22.863Z,10.84
2023-04-14T07:00:57.546Z,10.88
2023-04-14T07:03:24.910Z,10.90
2023-04-14T10:43:50.348Z,9.59
2023-04-14T10:46:18.622Z,9.94
2023-04-14T10:48:49.335Z,10.33
2023-04-14T10:51:17.997Z,10.50
2023-04-14T10:53:50.829Z,10.75
2023-04-14T10:56:20.595Z,10.88
2023-04-14T10:58:58.018Z,10.88
2023-04-14T11:01:32.730Z,10.80
2023-04-14T11:04:17.174Z,11.04
2023-04-14T11:06:46.969Z,10.81
2023-04-14T11:09:32.130Z,11.01
2023-04-14T11:12:22.514Z,11.33
2023-04-14T11:14:49.207Z,11.50
2023-04-14T11:17:22.559Z,11.49
2023-04-14T11:19:53.681Z,11.38
2023-04-14T11:22:43.576Z,11.30
2023-04-14T11:25:15.225Z,11.20
2023-04-14T11:27:42.802Z,11.12
2023-04-14T11:30:14.194Z,10.92
2023-04-14T11:32:57.680Z,10.99
2023-04-14T11:35:28.875Z,11.07
2023-04-14T11:37:59.794Z,10.88
2023-04-14T11:40:27.473Z,10.94
2023-04-14T11:42:56.208Z,10.85
2023-04-14T11:45:28.159Z,10.65
2023-04-14T11:48:02.518Z,10.59
2023-04-14T11:50:36.280Z,10.79
2023-04-14T11:53:11.614Z,10.84
2023-04-14T11:55:43.210Z,10.61
2023-04-14T11:58:11.099Z,10.61
2023-04-14T12:00:37.886Z,10.63
2023-04-14T12:03:05.152Z,10.69
2023-04-14T12:05:32.558Z,10.55
2023-04-14T12:08:04.920Z,10.50
2023-04-14T12:10:32.348Z,10.39
2023-04-14T12:13:01.862Z,10.56
2023-04-14T12:15:33.278Z,10.33
2023-04-14T12:18:00.714Z,9.70
2023-04-14T12:20:28.349Z,9.81
2023-04-14T12:23:02.817Z,9.29
2023-04-14T12:25:33.014Z,9.30
2023-04-14T12:28:00.282Z,9.48
2023-04-14T12:30:26.883Z,9.82
2023-04-14T12:32:53.685Z,9.68
2023-04-14T12:35:24.016Z,9.28
2023-04-14T12:37:51.528Z,8.34
2023-04-14T12:40:37.920Z,8.39
2023-04-14T12:43:04.755Z,8.34
2023-04-14T12:45:44.645Z,8.06
2023-04-14T12:48:13.350Z,8.13
2023-04-14T12:50:40.092Z,8.12
2023-04-14T12:53:26.205Z,8.19
2023-04-14T12:56:13.650Z,8.35
2023-04-14T12:58:43.608Z,8.52
2023-04-14T13:01:11.380Z,8.58
2023-04-14T13:03:49.605Z,8.64
2023-04-14T13:06:18.650Z,8.69
2023-04-14T13:08:52.965Z,8.38
2023-04-14T13:11:23.481Z,8.31
2023-04-14T13:13:53.856Z,8.25
2023-04-14T13:16:20.921Z,8.19
2023-04-14T13:18:48.663Z,8.16
2023-04-14T13:21:15.696Z,8.33
2023-04-14T13:23:42.493Z,8.62
2023-04-14T13:26:09.251Z,8.40
2023-04-14T13:28:36.070Z,8.64
2023-04-14T13:31:02.696Z,8.37
2023-04-14T13:33:29.338Z,8.64
2023-04-14T13:35:56.433Z,8.56
2023-04-14T13:38:23.173Z,8.89
2023-04-14T13:40:49.852Z,8.71
2023-04-14T13:43:18.057Z,8.89
2023-04-14T13:45:44.916Z,8.57
2023-04-14T13:48:11.806Z,8.58
2023-04-14T13:50:40.176Z,8.41
2023-04-14T13:53:06.821Z,9.04
2023-04-14T13:55:34.478Z,9.29
2023-04-14T13:58:01.148Z,9.14
2023-04-14T14:00:27.864Z,9.02
2023-04-14T14:02:54.738Z,8.68
2023-04-14T14:05:21.545Z,8.65
2023-04-14T14:07:51.315Z,8.67
2023-04-14T14:10:18.104Z,8.81
2023-04-14T14:12:45.018Z,8.55
2023-04-14T14:15:11.852Z,8.49
2023-04-14T14:17:38.799Z,7.97
2023-04-14T14:20:06.064Z,7.91
2023-04-14T14:22:32.692Z,7.97
2023-04-14T14:25:10.780Z,7.83
2023-04-14T14:27:42.437Z,7.53
2023-04-14T14:30:09.580Z,7.20
2023-04-14T14:32:36.260Z,7.17
2023-04-14T14:35:04.205Z,7.26
2023-04-14T14:37:30.882Z,7.68
2023-04-14T14:39:57.587Z,7.53
2023-04-14T14:42:24.217Z,7.49
2023-04-14T14:44:50.809Z,7.26
2023-04-14T14:47:17.735Z,7.55
2023-04-14T14:49:56.544Z,7.34
2023-04-14T14:52:30.192Z,7.06
2023-04-14T14:54:56.995Z,7.41
2023-04-14T14:57:23.628Z,7.30
2023-04-14T14:59:50.261Z,7.49
2023-04-14T15:02:17.048Z,7.35
2023-04-14T15:04:43.989Z,7.38
2023-04-14T15:07:10.679Z,7.27
2023-04-14T15:09:37.324Z,7.43
2023-04-14T15:12:03.999Z,6.95
2023-04-14T15:14:30.671Z,6.99
2023-04-14T15:16:57.471Z,7.00
2023-04-14T15:19:24.256Z,6.94
2023-04-14T15:21:51.455Z,7.08
2023-04-14T15:24:18.210Z,6.95
2023-04-14T15:26:44.825Z,7.10
2023-04-14T15:29:14.527Z,6.92
2023-04-14T15:31:41.130Z,7.13
2023-04-14T15:34:07.824Z,6.90
2023-04-14T15:36:34.445Z,6.83
2023-04-14T15:39:01.082Z,6.67
2023-04-14T15:41:27.876Z,6.37
2023-04-14T15:43:54.504Z,6.72
2023-04-14T15:46:21.291Z,6.58
2023-04-14T15:48:47.994Z,6.71
2023-04-14T15:51:14.624Z,6.41
2023-04-14T15:53:41.316Z,6.54
2023-04-14T15:56:07.928Z,6.83
2023-04-14T15:58:34.585Z,6.67
2023-04-14T16:01:06.758Z,6.34
2023-04-14T16:03:33.751Z,7.01
2023-04-14T16:06:04.432Z,6.82
2023-04-14T16:08:31.046Z,6.74
2023-04-14T16:10:57.837Z,6.80
2023-04-14T16:13:24.504Z,6.64
2023-04-14T16:15:51.393Z,6.78
2023-04-14T16:18:18.076Z,6.72
2023-04-14T16:20:44.787Z,6.25
2023-04-14T16:23:11.567Z,6.55
2023-04-14T16:25:38.275Z,6.78
2023-04-14T16:28:04.953Z,6.27
2023-04-14T16:30:31.724Z,6.54
2023-04-14T16:32:58.541Z,6.26
2023-04-14T16:35:25.235Z,6.47
2023-04-14T16:37:51.843Z,6.47
2023-04-14T16:40:18.606Z,6.51
2023-04-14T16:42:45.191Z,6.36
2023-04-14T16:45:11.847Z,6.47
2023-04-14T16:47:38.623Z,6.49
2023-04-14T16:50:05.868Z,6.35
2023-04-14T16:52:32.500Z,6.26
2023-04-14T16:54:59.462Z,6.52
2023-04-14T16:57:26.510Z,6.29
2023-04-14T16:59:53.262Z,6.69
2023-04-14T17:02:20.062Z,6.74
2023-04-14T17:04:46.876Z,6.58
2023-04-14T17:07:13.662Z,6.26
2023-04-14T17:09:40.804Z,6.35
2023-04-14T17:12:07.507Z,6.02
2023-04-14T17:14:35.110Z,5.81
2023-04-14T17:17:02.337Z,5.77
2023-04-14T17:19:29.006Z,5.90
2023-04-14T17:21:55.656Z,6.21
2023-04-14T17:24:22.336Z,6.29
2023-04-14T17:26:49.089Z,6.26
2023-04-14T17:29:15.698Z,5.95
2023-04-14T17:31:42.683Z,6.03
2023-04-14T17:34:09.455Z,5.91
2023-04-14T17:36:36.180Z,5.98
2023-04-14T17:39:02.986Z,5.76
2023-04-14T17:41:30.045Z,5.73
2023-04-14T17:43:56.720Z,5.89
2023-04-14T17:46:23.519Z,6.01
2023-04-14T17:48:50.166Z,5.96
2023-04-14T17:51:16.812Z,6.02
2023-04-14T17:53:43.502Z,5.76
2023-04-14T17:56:10.842Z,5.76
2023-04-14T17:58:37.520Z,5.41
2023-04-14T18:01:04.519Z,5.40
2023-04-14T18:03:31.345Z,5.57
2023-04-14T18:05:58.003Z,5.28
2023-04-14T18:08:24.667Z,5.52
2023-04-14T18:10:51.249Z,5.32
2023-04-14T18:13:17.930Z,5.56
2023-04-14T18:15:44.676Z,5.32
2023-04-14T18:18:11.288Z,5.21
2023-04-14T18:20:37.944Z,5.34
2023-04-14T18:23:04.627Z,5.30
2023-04-14T18:26:26.236Z,5.13
2023-04-14T18:28:18.786Z,5.09
2023-04-14T18:30:52.934Z,5.39
2023-04-14T18:33:19.684Z,5.06
2023-04-14T18:35:53.403Z,5.23
2023-04-14T18:38:20.230Z,5.52
2023-04-14T18:40:47.664Z,5.71
2023-04-14T18:43:15.295Z,5.67
2023-04-14T18:45:49.060Z,6.18
2023-04-14T18:48:16.912Z,5.97
2023-04-14T18:50:44.869Z,6.24
2023-04-14T18:53:12.281Z,5.76
2023-04-14T18:55:45.402Z,5.72
2023-04-14T18:58:15.608Z,5.31
2023-04-14T19:00:44.688Z,5.69
2023-04-14T19:03:11.517Z,5.88
2023-04-14T19:05:38.248Z,6.29
2023-04-14T19:08:05.102Z,5.84
2023-04-14T19:10:33.842Z,5.45
2023-04-14T19:13:00.475Z,5.76
2023-04-14T19:15:27.273Z,5.65
2023-04-14T19:17:54.411Z,5.71
2023-04-14T19:20:21.704Z,5.62
2023-04-14T19:22:48.914Z,5.91
2023-04-14T19:25:15.914Z,5.95
2023-04-14T19:27:43.450Z,5.57
2023-04-14T19:30:10.711Z,5.83
2023-04-14T19:32:37.474Z,5.58
2023-04-14T19:35:04.947Z,5.69
2023-04-14T19:37:31.767Z,5.64
2023-04-14T19:39:58.415Z,5.45
2023-04-14T19:42:25.061Z,5.38
2023-04-14T19:44:51.790Z,5.45
2023-04-14T19:47:18.595Z,5.39
2023-04-14T19:49:46.383Z,5.60
2023-04-14T19:52:12.987Z,5.70
2023-04-14T19:54:39.575Z,5.63
2023-04-14T19:57:06.218Z,5.51
2023-04-14T19:59:32.917Z,5.59
2023-04-14T20:01:59.568Z,5.53
2023-04-14T20:04:26.771Z,5.68
2023-04-14T20:06:54.030Z,5.53
2023-04-14T20:09:20.688Z,5.48
2023-04-14T20:11:48.767Z,5.52
2023-04-14T20:14:15.385Z,5.78
2023-04-14T20:16:42.070Z,5.96
2023-04-14T20:19:08.953Z,5.71
2023-04-14T20:21:35.552Z,5.69
2023-04-14T20:24:02.223Z,5.63
2023-04-14T20:26:28.832Z,5.60
2023-04-14T20:28:55.575Z,5.45
2023-04-14T20:31:22.316Z,5.26
2023-04-14T20:33:48.994Z,5.18
2023-04-14T20:36:15.618Z,5.09
2023-04-14T20:38:42.503Z,5.26
2023-04-14T20:41:09.218Z,5.22
2023-04-14T20:43:35.856Z,5.29
2023-04-14T20:46:03.153Z,5.22
2023-04-14T20:48:30.781Z,5.24
2023-04-14T20:50:57.752Z,5.15
2023-04-14T20:53:24.416Z,5.03
2023-04-14T20:55:51.472Z,5.20
2023-04-14T20:58:18.116Z,5.13
2023-04-14T21:00:44.713Z,5.13
2023-04-14T21:03:11.498Z,5.22
2023-04-14T21:05:38.256Z,5.14
2023-04-14T21:08:05.001Z,5.04
2023-04-14T21:10:32.116Z,5.17
2023-04-14T21:15:27.033Z,4.95
2023-04-14T21:15:57.361Z,4.89
2023-04-14T21:18:24.112Z,5.04
2023-04-14T21:20:50.902Z,4.90
2023-04-14T21:23:17.513Z,4.77
2023-04-14T21:25:44.229Z,4.97
2023-04-14T21:28:10.853Z,4.79
2023-04-14T21:30:37.519Z,4.85
2023-04-14T21:33:05.474Z,4.65
2023-04-14T21:35:34.542Z,4.71
2023-04-14T21:38:01.246Z,4.75
2023-04-14T21:40:28.126Z,4.51
2023-04-14T21:42:54.702Z,4.65
2023-04-14T21:45:21.298Z,4.56
2023-04-14T21:47:48.050Z,4.35
2023-04-14T21:50:14.740Z,4.28
2023-04-14T21:52:41.324Z,4.50
2023-04-14T21:55:08.464Z,4.61
2023-04-14T21:57:44.390Z,4.43
2023-04-14T22:00:17.019Z,4.34
2023-04-14T22:02:44.542Z,4.44
2023-04-14T22:05:11.967Z,4.48
2023-04-14T22:07:38.693Z,4.43
2023-04-14T22:10:05.794Z,4.30
2023-04-14T22:12:33.221Z,4.12
2023-04-14T22:15:09.580Z,4.29
2023-04-14T22:17:39.148Z,4.64
2023-04-14T22:20:06.538Z,4.76
2023-04-14T22:22:33.910Z,4.90
2023-04-14T22:25:00.557Z,4.74
2023-04-14T22:27:27.519Z,4.63
2023-04-14T22:29:54.195Z,4.44
2023-04-14T22:32:20.897Z,4.56
2023-04-14T22:34:47.484Z,4.70
2023-04-14T22:37:14.230Z,4.74
2023-04-14T22:39:40.875Z,4.76
2023-04-14T22:42:07.455Z,4.95
2023-04-14T22:44:34.190Z,4.96
2023-04-14T22:47:00.867Z,4.88
2023-04-14T22:49:27.473Z,4.66
2023-04-14T22:51:54.184Z,4.57
2023-04-14T22:54:20.942Z,4.79
2023-04-14T22:56:47.660Z,4.72
2023-04-14T22:59:14.300Z,5.25
2023-04-14T23:01:40.929Z,4.87
2023-04-14T23:04:07.685Z,4.54
2023-04-14T23:06:34.379Z,4.76
2023-04-14T23:09:01.331Z,4.70
2023-04-14T23:11:28.118Z,4.49
2023-04-14T23:13:54.727Z,4.55
2023-04-14T23:16:21.564Z,4.71
2023-04-14T23:18:48.350Z,4.58
2023-04-14T23:21:15.684Z,4.69
2023-04-14T23:23:42.351Z,4.82
2023-04-14T23:26:09.198Z,4.71
2023-04-14T23:28:35.944Z,5.28
2023-04-14T23:31:02.630Z,5.27
2023-04-14T23:33:29.282Z,5.20
2023-04-14T23:35:58.272Z,5.11
2023-04-14T23:38:24.956Z,5.18
2023-04-14T23:40:51.580Z,5.14
2023-04-14T23:43:18.192Z,5.06
2023-04-14T23:45:44.854Z,5.21
2023-04-14T23:48:11.503Z,5.43
2023-04-14T23:51:02.190Z,5.64
2023-04-14T23:53:25.479Z,5.26
2023-04-14T23:55:52.117Z,4.93
2023-04-14T23:58:26.347Z,5.16
